sensor_id;sensor_type;location;lat;lon;timestamp;P1;durP1;ratioP1;P2;durP2;ratioP2
4428;SDS011;2227;47.810;8.810;2022-09-01T03:47:22;13.48;;;10.90;;
4428;SDS011;2227;47.810;8.810;2022-09-01T03:49:49;15.57;;;12.15;;
4428;SDS011;2227;47.810;8.810;2022-09-01T03:52:16;12.50;;;10.98;;
4428;SDS011;2227;47.810;8.810;2022-09-01T03:54:43;13.93;;;11.48;;
4428;SDS011;2227;47.810;8.810;2022-09-01T03:57:11;14.25;;;11.65;;
4428;SDS011;2227;47.810;8.810;2022-09-01T03:59:39;14.10;;;11.05;;
4428;SDS011;2227;47.810;8.810;2022-09-01T04:02:10;12.77;;;10.52;;
4428;SDS011;2227;47.810;8.810;2022-09-01T04:04:38;13.00;;;10.70;;
4428;SDS011;2227;47.810;8.810;2022-09-01T04:07:05;12.88;;;10.43;;
4428;SDS011;2227;47.810;8.810;2022-09-01T04:09:32;13.75;;;10.32;;
4428;SDS011;2227;47.810;8.810;2022-09-01T04:12:00;10.32;;;8.73;;
4428;SDS011;2227;47.810;8.810;2022-09-01T04:14:33;12.48;;;10.15;;
4428;SDS011;2227;47.810;8.810;2022-09-01T04:17:00;12.05;;;9.75;;
4428;SDS011;2227;47.810;8.810;2022-09-01T04:19:45;14.65;;;10.80;;
4428;SDS011;2227;47.810;8.810;2022-09-01T04:22:12;12.07;;;10.23;;
4428;SDS011;2227;47.810;8.810;2022-09-01T04:24:42;13.10;;;10.05;;
4428;SDS011;2227;47.810;8.810;2022-09-01T04:27:12;14.45;;;10.25;;
4428;SDS011;2227;47.810;8.810;2022-09-01T04:29:40;12.02;;;10.65;;
4428;SDS011;2227;47.810;8.810;2022-09-01T04:32:08;11.48;;;9.23;;
4428;SDS011;2227;47.810;8.810;2022-09-01T04:34:38;14.52;;;9.90;;
4428;SDS011;2227;47.810;8.810;2022-09-01T04:37:06;12.65;;;9.93;;
4428;SDS011;2227;47.810;8.810;2022-09-01T04:39:34;14.50;;;9.82;;
4428;SDS011;2227;47.810;8.810;2022-09-01T04:42:04;13.57;;;9.98;;
4428;SDS011;2227;47.810;8.810;2022-09-01T04:44:31;12.07;;;8.90;;
4428;SDS011;2227;47.810;8.810;2022-09-01T04:46:58;14.27;;;9.07;;
4428;SDS011;2227;47.810;8.810;2022-09-01T04:49:25;14.73;;;9.38;;
4428;SDS011;2227;47.810;8.810;2022-09-01T04:51:53;11.88;;;9.30;;
4428;SDS011;2227;47.810;8.810;2022-09-01T04:54:20;11.85;;;8.52;;
4428;SDS011;2227;47.810;8.810;2022-09-01T04:56:49;11.82;;;8.90;;
4428;SDS011;2227;47.810;8.810;2022-09-01T04:59:19;15.77;;;8.68;;
4428;SDS011;2227;47.810;8.810;2022-09-01T05:01:48;11.40;;;8.32;;
4428;SDS011;2227;47.810;8.810;2022-09-01T05:04:17;12.00;;;8.90;;
4428;SDS011;2227;47.810;8.810;2022-09-01T05:06:48;18.92;;;8.88;;
4428;SDS011;2227;47.810;8.810;2022-09-01T05:09:19;12.68;;;8.02;;
4428;SDS011;2227;47.810;8.810;2022-09-01T05:11:46;12.18;;;7.63;;
4428;SDS011;2227;47.810;8.810;2022-09-01T05:14:15;8.90;;;7.30;;
4428;SDS011;2227;47.810;8.810;2022-09-01T05:16:47;10.95;;;7.15;;
4428;SDS011;2227;47.810;8.810;2022-09-01T05:19:16;9.20;;;7.45;;
4428;SDS011;2227;47.810;8.810;2022-09-01T05:21:46;9.43;;;6.70;;
4428;SDS011;2227;47.810;8.810;2022-09-01T05:24:16;10.85;;;7.97;;
4428;SDS011;2227;47.810;8.810;2022-09-01T05:26:45;10.02;;;8.27;;
4428;SDS011;2227;47.810;8.810;2022-09-01T05:29:13;12.55;;;7.75;;
4428;SDS011;2227;47.810;8.810;2022-09-01T05:31:43;11.02;;;7.78;;
4428;SDS011;2227;47.810;8.810;2022-09-01T05:34:14;10.32;;;7.53;;
4428;SDS011;2227;47.810;8.810;2022-09-01T05:36:45;9.73;;;7.15;;
4428;SDS011;2227;47.810;8.810;2022-09-01T05:39:15;10.18;;;7.57;;
4428;SDS011;2227;47.810;8.810;2022-09-01T05:41:42;11.45;;;7.38;;
4428;SDS011;2227;47.810;8.810;2022-09-01T05:44:11;9.60;;;6.70;;
4428;SDS011;2227;47.810;8.810;2022-09-01T05:46:39;9.63;;;6.40;;
4428;SDS011;2227;47.810;8.810;2022-09-01T05:49:07;10.18;;;7.35;;
4428;SDS011;2227;47.810;8.810;2022-09-01T05:51:39;13.73;;;7.80;;
4428;SDS011;2227;47.810;8.810;2022-09-01T05:54:12;10.02;;;7.10;;
4428;SDS011;2227;47.810;8.810;2022-09-01T05:56:40;8.43;;;6.70;;
4428;SDS011;2227;47.810;8.810;2022-09-01T05:59:09;8.27;;;6.57;;
4428;SDS011;2227;47.810;8.810;2022-09-01T06:01:53;9.65;;;6.35;;
4428;SDS011;2227;47.810;8.810;2022-09-01T06:04:21;8.60;;;6.75;;
4428;SDS011;2227;47.810;8.810;2022-09-01T06:06:51;8.85;;;6.30;;
4428;SDS011;2227;47.810;8.810;2022-09-01T06:09:32;10.88;;;6.63;;
4428;SDS011;2227;47.810;8.810;2022-09-01T06:12:03;10.48;;;6.20;;
4428;SDS011;2227;47.810;8.810;2022-09-01T06:14:32;7.82;;;5.95;;
4428;SDS011;2227;47.810;8.810;2022-09-01T06:16:59;8.23;;;6.05;;
4428;SDS011;2227;47.810;8.810;2022-09-01T06:19:26;8.15;;;5.95;;
4428;SDS011;2227;47.810;8.810;2022-09-01T06:21:53;7.88;;;5.80;;
4428;SDS011;2227;47.810;8.810;2022-09-01T06:24:21;10.25;;;6.53;;
4428;SDS011;2227;47.810;8.810;2022-09-01T06:26:48;7.78;;;6.15;;
4428;SDS011;2227;47.810;8.810;2022-09-01T06:29:15;8.02;;;6.43;;
4428;SDS011;2227;47.810;8.810;2022-09-01T06:31:43;9.85;;;7.20;;
4428;SDS011;2227;47.810;8.810;2022-09-01T06:34:17;11.00;;;6.97;;
4428;SDS011;2227;47.810;8.810;2022-09-01T06:36:45;8.93;;;6.72;;
4428;SDS011;2227;47.810;8.810;2022-09-01T06:39:14;9.00;;;7.60;;
4428;SDS011;2227;47.810;8.810;2022-09-01T06:41:47;9.83;;;7.47;;
4428;SDS011;2227;47.810;8.810;2022-09-01T06:44:18;14.40;;;8.52;;
4428;SDS011;2227;47.810;8.810;2022-09-01T06:46:48;12.52;;;7.88;;
4428;SDS011;2227;47.810;8.810;2022-09-01T06:49:17;9.95;;;6.90;;
4428;SDS011;2227;47.810;8.810;2022-09-01T06:51:46;10.23;;;7.07;;
4428;SDS011;2227;47.810;8.810;2022-09-01T06:54:14;9.25;;;7.45;;
4428;SDS011;2227;47.810;8.810;2022-09-01T06:56:46;10.65;;;7.22;;
4428;SDS011;2227;47.810;8.810;2022-09-01T06:59:17;8.20;;;6.03;;
4428;SDS011;2227;47.810;8.810;2022-09-01T07:01:45;9.55;;;6.65;;
4428;SDS011;2227;47.810;8.810;2022-09-01T07:04:14;8.63;;;6.10;;
4428;SDS011;2227;47.810;8.810;2022-09-01T07:06:46;8.43;;;6.15;;
4428;SDS011;2227;47.810;8.810;2022-09-01T07:09:40;8.30;;;5.30;;
4428;SDS011;2227;47.810;8.810;2022-09-01T07:12:18;9.68;;;5.97;;
4428;SDS011;2227;47.810;8.810;2022-09-01T07:15:05;7.90;;;5.80;;
4428;SDS011;2227;47.810;8.810;2022-09-01T07:17:55;6.55;;;5.35;;
4428;SDS011;2227;47.810;8.810;2022-09-01T07:20:25;13.48;;;6.53;;
4428;SDS011;2227;47.810;8.810;2022-09-01T07:22:55;13.20;;;6.38;;
4428;SDS011;2227;47.810;8.810;2022-09-01T07:25:32;8.40;;;6.30;;
4428;SDS011;2227;47.810;8.810;2022-09-01T07:28:23;9.15;;;6.15;;
4428;SDS011;2227;47.810;8.810;2022-09-01T07:31:03;7.95;;;5.28;;
4428;SDS011;2227;47.810;8.810;2022-09-01T07:33:51;7.88;;;5.97;;
4428;SDS011;2227;47.810;8.810;2022-09-01T07:36:40;8.48;;;5.40;;
4428;SDS011;2227;47.810;8.810;2022-09-01T07:39:30;10.13;;;6.60;;
4428;SDS011;2227;47.810;8.810;2022-09-01T07:42:16;10.05;;;6.50;;
4428;SDS011;2227;47.810;8.810;2022-09-01T07:45:03;8.70;;;5.82;;
4428;SDS011;2227;47.810;8.810;2022-09-01T07:47:54;13.55;;;6.95;;
4428;SDS011;2227;47.810;8.810;2022-09-01T07:50:22;7.85;;;6.15;;
4428;SDS011;2227;47.810;8.810;2022-09-01T07:53:06;8.38;;;5.68;;
4428;SDS011;2227;47.810;8.810;2022-09-01T07:55:34;7.65;;;5.35;;
4428;SDS011;2227;47.810;8.810;2022-09-01T07:58:07;10.65;;;6.10;;
4428;SDS011;2227;47.810;8.810;2022-09-01T08:00:34;8.48;;;6.00;;
4428;SDS011;2227;47.810;8.810;2022-09-01T08:03:02;13.50;;;5.57;;
4428;SDS011;2227;47.810;8.810;2022-09-01T08:05:29;6.63;;;4.88;;
4428;SDS011;2227;47.810;8.810;2022-09-01T08:07:56;6.72;;;4.85;;
4428;SDS011;2227;47.810;8.810;2022-09-01T08:10:23;6.32;;;4.88;;
4428;SDS011;2227;47.810;8.810;2022-09-01T08:12:50;5.70;;;4.80;;
4428;SDS011;2227;47.810;8.810;2022-09-01T08:15:24;6.90;;;5.00;;
4428;SDS011;2227;47.810;8.810;2022-09-01T08:18:11;7.60;;;4.65;;
4428;SDS011;2227;47.810;8.810;2022-09-01T08:20:40;6.90;;;4.07;;
4428;SDS011;2227;47.810;8.810;2022-09-01T08:23:13;8.10;;;4.85;;
4428;SDS011;2227;47.810;8.810;2022-09-01T08:25:44;7.05;;;4.40;;
4428;SDS011;2227;47.810;8.810;2022-09-01T08:28:12;6.22;;;4.20;;
4428;SDS011;2227;47.810;8.810;2022-09-01T08:30:40;7.25;;;4.70;;
4428;SDS011;2227;47.810;8.810;2022-09-01T08:33:17;4.95;;;3.75;;
4428;SDS011;2227;47.810;8.810;2022-09-01T08:35:45;6.80;;;3.80;;
4428;SDS011;2227;47.810;8.810;2022-09-01T08:38:14;5.18;;;3.63;;
4428;SDS011;2227;47.810;8.810;2022-09-01T08:40:41;6.38;;;4.18;;
4428;SDS011;2227;47.810;8.810;2022-09-01T08:43:42;4.80;;;3.65;;
4428;SDS011;2227;47.810;8.810;2022-09-01T08:46:31;5.60;;;3.47;;
4428;SDS011;2227;47.810;8.810;2022-09-01T08:49:03;6.82;;;3.60;;
4428;SDS011;2227;47.810;8.810;2022-09-01T08:51:52;4.70;;;3.50;;
4428;SDS011;2227;47.810;8.810;2022-09-01T08:54:48;4.30;;;3.10;;
4428;SDS011;2227;47.810;8.810;2022-09-01T08:57:20;5.32;;;3.53;;
4428;SDS011;2227;47.810;8.810;2022-09-01T08:59:51;5.50;;;3.85;;
4428;SDS011;2227;47.810;8.810;2022-09-01T09:08:18;5.03;;;3.63;;
4428;SDS011;2227;47.810;8.810;2022-09-01T09:16:21;4.45;;;3.20;;
4428;SDS011;2227;47.810;8.810;2022-09-01T09:18:57;6.05;;;3.58;;
4428;SDS011;2227;47.810;8.810;2022-09-01T09:21:32;5.95;;;3.85;;
4428;SDS011;2227;47.810;8.810;2022-09-01T09:26:47;5.22;;;3.22;;
4428;SDS011;2227;47.810;8.810;2022-09-01T09:29:15;4.88;;;2.90;;
4428;SDS011;2227;47.810;8.810;2022-09-01T09:31:43;4.70;;;2.97;;
4428;SDS011;2227;47.810;8.810;2022-09-01T09:34:37;6.13;;;3.03;;
4428;SDS011;2227;47.810;8.810;2022-09-01T09:40:02;4.63;;;2.80;;
4428;SDS011;2227;47.810;8.810;2022-09-01T09:42:38;3.80;;;2.60;;
4428;SDS011;2227;47.810;8.810;2022-09-01T09:45:34;4.72;;;2.60;;
4428;SDS011;2227;47.810;8.810;2022-09-01T09:48:08;6.97;;;3.30;;
4428;SDS011;2227;47.810;8.810;2022-09-01T09:50:51;5.78;;;3.10;;
4428;SDS011;2227;47.810;8.810;2022-09-01T09:58:34;4.28;;;2.38;;
4428;SDS011;2227;47.810;8.810;2022-09-01T10:01:09;3.58;;;2.22;;
4428;SDS011;2227;47.810;8.810;2022-09-01T10:03:54;7.10;;;2.88;;
4428;SDS011;2227;47.810;8.810;2022-09-01T10:06:32;3.75;;;2.20;;
4428;SDS011;2227;47.810;8.810;2022-09-01T10:09:48;3.55;;;2.10;;
4428;SDS011;2227;47.810;8.810;2022-09-01T10:11:51;3.65;;;2.25;;
4428;SDS011;2227;47.810;8.810;2022-09-01T10:14:24;3.90;;;2.20;;
4428;SDS011;2227;47.810;8.810;2022-09-01T10:17:18;4.10;;;2.28;;
4428;SDS011;2227;47.810;8.810;2022-09-01T10:19:53;3.60;;;2.40;;
4428;SDS011;2227;47.810;8.810;2022-09-01T10:22:28;5.75;;;2.53;;
4428;SDS011;2227;47.810;8.810;2022-09-01T10:24:58;2.83;;;2.05;;
4428;SDS011;2227;47.810;8.810;2022-09-01T10:27:28;6.63;;;2.58;;
4428;SDS011;2227;47.810;8.810;2022-09-01T10:30:12;2.90;;;2.00;;
4428;SDS011;2227;47.810;8.810;2022-09-01T10:32:47;3.08;;;2.15;;
4428;SDS011;2227;47.810;8.810;2022-09-01T10:37:55;3.60;;;2.28;;
4428;SDS011;2227;47.810;8.810;2022-09-01T10:43:42;3.45;;;2.25;;
4428;SDS011;2227;47.810;8.810;2022-09-01T10:45:46;3.25;;;1.98;;
4428;SDS011;2227;47.810;8.810;2022-09-01T10:48:27;2.83;;;1.80;;
4428;SDS011;2227;47.810;8.810;2022-09-01T10:51:39;3.03;;;1.95;;
4428;SDS011;2227;47.810;8.810;2022-09-01T10:54:00;3.13;;;2.10;;
4428;SDS011;2227;47.810;8.810;2022-09-01T11:02:15;4.78;;;2.10;;
4428;SDS011;2227;47.810;8.810;2022-09-01T11:05:09;3.17;;;2.05;;
4428;SDS011;2227;47.810;8.810;2022-09-01T11:07:38;4.30;;;2.40;;
4428;SDS011;2227;47.810;8.810;2022-09-01T11:10:28;4.15;;;2.20;;
4428;SDS011;2227;47.810;8.810;2022-09-01T11:15:54;3.63;;;2.25;;
4428;SDS011;2227;47.810;8.810;2022-09-01T11:18:28;6.90;;;2.60;;
4428;SDS011;2227;47.810;8.810;2022-09-01T11:23:45;3.63;;;2.30;;
4428;SDS011;2227;47.810;8.810;2022-09-01T11:29:03;3.63;;;2.15;;
4428;SDS011;2227;47.810;8.810;2022-09-01T11:31:31;2.92;;;2.25;;
4428;SDS011;2227;47.810;8.810;2022-09-01T11:34:09;3.65;;;1.80;;
4428;SDS011;2227;47.810;8.810;2022-09-01T11:36:57;2.78;;;2.10;;
4428;SDS011;2227;47.810;8.810;2022-09-01T11:39:30;3.67;;;2.20;;
4428;SDS011;2227;47.810;8.810;2022-09-01T11:47:10;2.55;;;1.67;;
4428;SDS011;2227;47.810;8.810;2022-09-01T11:49:50;3.67;;;2.05;;
4428;SDS011;2227;47.810;8.810;2022-09-01T11:52:21;3.88;;;2.17;;
4428;SDS011;2227;47.810;8.810;2022-09-01T11:54:51;3.40;;;1.98;;
4428;SDS011;2227;47.810;8.810;2022-09-01T11:57:29;4.43;;;2.33;;
4428;SDS011;2227;47.810;8.810;2022-09-01T11:59:58;3.03;;;1.88;;
4428;SDS011;2227;47.810;8.810;2022-09-01T12:02:28;3.97;;;2.00;;
4428;SDS011;2227;47.810;8.810;2022-09-01T12:05:03;3.75;;;2.03;;
4428;SDS011;2227;47.810;8.810;2022-09-01T12:07:49;3.45;;;2.03;;
4428;SDS011;2227;47.810;8.810;2022-09-01T12:10:20;2.80;;;1.80;;
4428;SDS011;2227;47.810;8.810;2022-09-01T12:15:43;2.70;;;1.77;;
4428;SDS011;2227;47.810;8.810;2022-09-01T12:18:46;3.88;;;2.20;;
4428;SDS011;2227;47.810;8.810;2022-09-01T12:21:38;2.60;;;1.80;;
4428;SDS011;2227;47.810;8.810;2022-09-01T12:26:37;4.13;;;2.40;;
4428;SDS011;2227;47.810;8.810;2022-09-01T12:29:04;2.75;;;1.92;;
4428;SDS011;2227;47.810;8.810;2022-09-01T12:31:32;3.70;;;2.60;;
4428;SDS011;2227;47.810;8.810;2022-09-01T12:34:00;3.13;;;2.00;;
4428;SDS011;2227;47.810;8.810;2022-09-01T12:36:31;2.67;;;2.00;;
4428;SDS011;2227;47.810;8.810;2022-09-01T12:44:51;3.63;;;2.05;;
4428;SDS011;2227;47.810;8.810;2022-09-01T12:50:00;2.47;;;1.85;;
4428;SDS011;2227;47.810;8.810;2022-09-01T12:52:32;2.67;;;1.90;;
4428;SDS011;2227;47.810;8.810;2022-09-01T13:02:35;2.83;;;1.73;;
4428;SDS011;2227;47.810;8.810;2022-09-01T13:05:17;3.47;;;2.42;;
4428;SDS011;2227;47.810;8.810;2022-09-01T13:07:59;3.00;;;2.00;;
4428;SDS011;2227;47.810;8.810;2022-09-01T13:10:33;4.90;;;2.70;;
4428;SDS011;2227;47.810;8.810;2022-09-01T13:13:08;3.78;;;2.08;;
4428;SDS011;2227;47.810;8.810;2022-09-01T13:15:37;4.50;;;2.05;;
4428;SDS011;2227;47.810;8.810;2022-09-01T13:18:05;4.65;;;1.90;;
4428;SDS011;2227;47.810;8.810;2022-09-01T13:20:32;3.22;;;2.13;;
4428;SDS011;2227;47.810;8.810;2022-09-01T13:23:00;3.67;;;1.92;;
4428;SDS011;2227;47.810;8.810;2022-09-01T13:25:27;4.63;;;2.20;;
4428;SDS011;2227;47.810;8.810;2022-09-01T13:27:54;4.18;;;2.00;;
4428;SDS011;2227;47.810;8.810;2022-09-01T13:30:22;3.20;;;1.92;;
4428;SDS011;2227;47.810;8.810;2022-09-01T13:32:53;4.40;;;2.13;;
4428;SDS011;2227;47.810;8.810;2022-09-01T13:35:43;2.90;;;2.05;;
4428;SDS011;2227;47.810;8.810;2022-09-01T13:38:10;3.95;;;2.00;;
4428;SDS011;2227;47.810;8.810;2022-09-01T13:40:41;3.50;;;1.83;;
4428;SDS011;2227;47.810;8.810;2022-09-01T13:43:12;2.63;;;2.00;;
4428;SDS011;2227;47.810;8.810;2022-09-01T13:45:45;3.33;;;1.90;;
4428;SDS011;2227;47.810;8.810;2022-09-01T13:48:13;3.40;;;2.03;;
4428;SDS011;2227;47.810;8.810;2022-09-01T13:50:41;3.78;;;1.75;;
4428;SDS011;2227;47.810;8.810;2022-09-01T13:53:30;3.05;;;1.90;;
4428;SDS011;2227;47.810;8.810;2022-09-01T13:55:57;2.83;;;1.80;;
4428;SDS011;2227;47.810;8.810;2022-09-01T13:58:24;3.00;;;1.70;;
4428;SDS011;2227;47.810;8.810;2022-09-01T14:00:51;3.03;;;1.90;;
4428;SDS011;2227;47.810;8.810;2022-09-01T14:03:20;3.72;;;1.85;;
4428;SDS011;2227;47.810;8.810;2022-09-01T14:05:48;4.10;;;2.00;;
4428;SDS011;2227;47.810;8.810;2022-09-01T14:08:17;3.83;;;2.17;;
4428;SDS011;2227;47.810;8.810;2022-09-01T14:10:46;4.15;;;2.20;;
4428;SDS011;2227;47.810;8.810;2022-09-01T14:13:16;3.25;;;2.10;;
4428;SDS011;2227;47.810;8.810;2022-09-01T14:15:47;3.92;;;2.30;;
4428;SDS011;2227;47.810;8.810;2022-09-01T14:18:15;3.13;;;2.10;;
4428;SDS011;2227;47.810;8.810;2022-09-01T14:20:44;4.38;;;2.08;;
4428;SDS011;2227;47.810;8.810;2022-09-01T14:23:13;2.58;;;1.75;;
4428;SDS011;2227;47.810;8.810;2022-09-01T14:25:41;3.42;;;2.15;;
4428;SDS011;2227;47.810;8.810;2022-09-01T14:28:16;3.00;;;2.00;;
4428;SDS011;2227;47.810;8.810;2022-09-01T14:30:46;7.18;;;2.47;;
4428;SDS011;2227;47.810;8.810;2022-09-01T14:33:14;2.85;;;1.98;;
4428;SDS011;2227;47.810;8.810;2022-09-01T14:35:43;3.65;;;2.42;;
4428;SDS011;2227;47.810;8.810;2022-09-01T14:38:12;3.15;;;2.10;;
4428;SDS011;2227;47.810;8.810;2022-09-01T14:40:40;4.30;;;2.47;;
4428;SDS011;2227;47.810;8.810;2022-09-01T14:43:09;4.07;;;2.13;;
4428;SDS011;2227;47.810;8.810;2022-09-01T14:45:39;5.07;;;2.35;;
4428;SDS011;2227;47.810;8.810;2022-09-01T14:48:11;3.53;;;2.08;;
4428;SDS011;2227;47.810;8.810;2022-09-01T14:50:41;4.00;;;2.42;;
4428;SDS011;2227;47.810;8.810;2022-09-01T14:53:09;2.97;;;2.00;;
4428;SDS011;2227;47.810;8.810;2022-09-01T14:55:37;3.53;;;2.10;;
4428;SDS011;2227;47.810;8.810;2022-09-01T14:58:04;10.35;;;3.50;;
4428;SDS011;2227;47.810;8.810;2022-09-01T15:00:31;9.50;;;2.70;;
4428;SDS011;2227;47.810;8.810;2022-09-01T15:03:01;4.50;;;2.13;;
4428;SDS011;2227;47.810;8.810;2022-09-01T15:05:28;3.67;;;2.35;;
4428;SDS011;2227;47.810;8.810;2022-09-01T15:08:04;2.60;;;1.90;;
4428;SDS011;2227;47.810;8.810;2022-09-01T15:10:31;4.18;;;1.98;;
4428;SDS011;2227;47.810;8.810;2022-09-01T15:12:59;3.60;;;2.50;;
4428;SDS011;2227;47.810;8.810;2022-09-01T15:15:27;3.78;;;2.30;;
4428;SDS011;2227;47.810;8.810;2022-09-01T15:17:54;3.13;;;1.85;;
4428;SDS011;2227;47.810;8.810;2022-09-01T15:20:22;3.40;;;2.53;;
4428;SDS011;2227;47.810;8.810;2022-09-01T15:23:07;3.40;;;2.30;;
4428;SDS011;2227;47.810;8.810;2022-09-01T15:25:35;3.63;;;2.50;;
4428;SDS011;2227;47.810;8.810;2022-09-01T15:28:02;2.60;;;2.03;;
4428;SDS011;2227;47.810;8.810;2022-09-01T15:30:31;4.40;;;2.20;;
4428;SDS011;2227;47.810;8.810;2022-09-01T15:32:58;3.80;;;2.38;;
4428;SDS011;2227;47.810;8.810;2022-09-01T15:35:26;3.83;;;2.15;;
4428;SDS011;2227;47.810;8.810;2022-09-01T15:37:54;3.85;;;2.60;;
4428;SDS011;2227;47.810;8.810;2022-09-01T15:40:22;3.38;;;1.98;;
4428;SDS011;2227;47.810;8.810;2022-09-01T15:42:50;3.33;;;2.03;;
4428;SDS011;2227;47.810;8.810;2022-09-01T15:45:18;3.10;;;2.08;;
4428;SDS011;2227;47.810;8.810;2022-09-01T15:47:46;2.85;;;2.00;;
4428;SDS011;2227;47.810;8.810;2022-09-01T15:50:17;5.25;;;2.70;;
4428;SDS011;2227;47.810;8.810;2022-09-01T15:55:19;3.30;;;2.22;;
4428;SDS011;2227;47.810;8.810;2022-09-01T15:57:48;5.50;;;2.47;;
4428;SDS011;2227;47.810;8.810;2022-09-01T16:00:16;4.07;;;2.40;;
4428;SDS011;2227;47.810;8.810;2022-09-01T16:02:44;4.15;;;2.15;;
4428;SDS011;2227;47.810;8.810;2022-09-01T16:05:11;3.35;;;2.33;;
4428;SDS011;2227;47.810;8.810;2022-09-01T16:07:39;3.50;;;2.53;;
4428;SDS011;2227;47.810;8.810;2022-09-01T16:10:07;3.08;;;2.28;;
4428;SDS011;2227;47.810;8.810;2022-09-01T16:12:38;2.90;;;2.10;;
4428;SDS011;2227;47.810;8.810;2022-09-01T16:15:08;2.30;;;1.60;;
4428;SDS011;2227;47.810;8.810;2022-09-01T16:20:34;2.88;;;2.33;;
4428;SDS011;2227;47.810;8.810;2022-09-01T16:23:23;3.90;;;2.35;;
4428;SDS011;2227;47.810;8.810;2022-09-01T16:25:56;3.42;;;2.45;;
4428;SDS011;2227;47.810;8.810;2022-09-01T16:28:29;3.15;;;2.58;;
4428;SDS011;2227;47.810;8.810;2022-09-01T16:31:14;3.95;;;2.78;;
4428;SDS011;2227;47.810;8.810;2022-09-01T16:33:57;4.03;;;2.50;;
4428;SDS011;2227;47.810;8.810;2022-09-01T16:39:15;3.47;;;2.70;;
4428;SDS011;2227;47.810;8.810;2022-09-01T16:41:57;3.50;;;2.25;;
4428;SDS011;2227;47.810;8.810;2022-09-01T16:56:28;4.03;;;2.70;;
4428;SDS011;2227;47.810;8.810;2022-09-01T17:04:42;3.45;;;2.42;;
4428;SDS011;2227;47.810;8.810;2022-09-01T17:07:19;3.25;;;2.50;;
4428;SDS011;2227;47.810;8.810;2022-09-01T17:13:08;4.75;;;2.55;;
4428;SDS011;2227;47.810;8.810;2022-09-01T17:15:48;5.25;;;2.92;;
4428;SDS011;2227;47.810;8.810;2022-09-01T17:18:39;4.93;;;2.60;;
4428;SDS011;2227;47.810;8.810;2022-09-01T17:24:06;5.00;;;2.80;;
4428;SDS011;2227;47.810;8.810;2022-09-01T17:26:38;5.15;;;2.58;;
4428;SDS011;2227;47.810;8.810;2022-09-01T17:29:27;4.43;;;2.42;;
4428;SDS011;2227;47.810;8.810;2022-09-01T17:34:52;5.13;;;2.70;;
4428;SDS011;2227;47.810;8.810;2022-09-01T17:40:28;4.30;;;2.70;;
4428;SDS011;2227;47.810;8.810;2022-09-01T17:45:48;4.20;;;2.97;;
4428;SDS011;2227;47.810;8.810;2022-09-01T17:48:20;4.95;;;3.47;;
4428;SDS011;2227;47.810;8.810;2022-09-01T17:53:42;8.43;;;3.97;;
4428;SDS011;2227;47.810;8.810;2022-09-01T17:56:26;5.82;;;3.97;;
4428;SDS011;2227;47.810;8.810;2022-09-01T18:01:42;6.80;;;3.80;;
4428;SDS011;2227;47.810;8.810;2022-09-01T18:09:23;5.40;;;3.08;;
4428;SDS011;2227;47.810;8.810;2022-09-01T18:14:21;5.43;;;3.00;;
4428;SDS011;2227;47.810;8.810;2022-09-01T18:16:56;4.43;;;3.10;;
4428;SDS011;2227;47.810;8.810;2022-09-01T18:19:36;4.88;;;3.10;;
4428;SDS011;2227;47.810;8.810;2022-09-01T18:22:07;5.45;;;3.47;;
4428;SDS011;2227;47.810;8.810;2022-09-01T18:27:05;4.00;;;3.00;;
4428;SDS011;2227;47.810;8.810;2022-09-01T18:29:34;4.72;;;3.33;;
4428;SDS011;2227;47.810;8.810;2022-09-01T18:32:22;4.30;;;3.25;;
4428;SDS011;2227;47.810;8.810;2022-09-01T18:41:01;8.23;;;3.60;;
4428;SDS011;2227;47.810;8.810;2022-09-01T18:48:56;5.22;;;4.03;;
4428;SDS011;2227;47.810;8.810;2022-09-01T19:02:25;6.60;;;4.13;;
4428;SDS011;2227;47.810;8.810;2022-09-01T19:08:21;7.75;;;4.03;;
4428;SDS011;2227;47.810;8.810;2022-09-01T19:21:40;4.70;;;3.72;;
4428;SDS011;2227;47.810;8.810;2022-09-01T19:24:12;5.72;;;4.28;;
4428;SDS011;2227;47.810;8.810;2022-09-01T19:27:20;9.13;;;4.35;;
4428;SDS011;2227;47.810;8.810;2022-09-01T19:29:43;5.15;;;3.72;;
4428;SDS011;2227;47.810;8.810;2022-09-01T19:32:11;5.88;;;4.45;;
4428;SDS011;2227;47.810;8.810;2022-09-01T19:34:49;5.63;;;4.93;;
4428;SDS011;2227;47.810;8.810;2022-09-01T19:37:18;11.35;;;4.40;;
4428;SDS011;2227;47.810;8.810;2022-09-01T19:39:46;6.15;;;4.35;;
4428;SDS011;2227;47.810;8.810;2022-09-01T19:52:58;5.83;;;4.80;;
4428;SDS011;2227;47.810;8.810;2022-09-01T19:58:17;5.38;;;4.35;;
4428;SDS011;2227;47.810;8.810;2022-09-01T20:01:02;6.60;;;4.50;;
4428;SDS011;2227;47.810;8.810;2022-09-01T20:03:34;4.78;;;4.10;;
4428;SDS011;2227;47.810;8.810;2022-09-01T20:06:07;8.15;;;4.53;;
4428;SDS011;2227;47.810;8.810;2022-09-01T20:08:41;5.97;;;4.40;;
4428;SDS011;2227;47.810;8.810;2022-09-01T20:11:17;5.38;;;4.70;;
4428;SDS011;2227;47.810;8.810;2022-09-01T20:16:30;6.25;;;4.35;;
4428;SDS011;2227;47.810;8.810;2022-09-01T20:21:38;5.50;;;4.00;;
4428;SDS011;2227;47.810;8.810;2022-09-01T20:30:04;5.50;;;4.70;;
4428;SDS011;2227;47.810;8.810;2022-09-01T20:32:48;7.15;;;4.95;;
4428;SDS011;2227;47.810;8.810;2022-09-01T20:35:19;6.07;;;4.40;;
4428;SDS011;2227;47.810;8.810;2022-09-01T20:41:10;6.38;;;4.43;;
4428;SDS011;2227;47.810;8.810;2022-09-01T20:43:46;6.57;;;5.03;;
4428;SDS011;2227;47.810;8.810;2022-09-01T20:46:17;6.03;;;4.82;;
4428;SDS011;2227;47.810;8.810;2022-09-01T20:48:45;7.82;;;4.72;;
4428;SDS011;2227;47.810;8.810;2022-09-01T20:51:14;6.38;;;4.70;;
4428;SDS011;2227;47.810;8.810;2022-09-01T20:53:53;5.32;;;4.47;;
4428;SDS011;2227;47.810;8.810;2022-09-01T20:59:22;5.10;;;4.50;;
4428;SDS011;2227;47.810;8.810;2022-09-01T21:16:29;6.13;;;4.70;;
4428;SDS011;2227;47.810;8.810;2022-09-01T21:22:05;6.35;;;5.13;;
4428;SDS011;2227;47.810;8.810;2022-09-01T21:24:34;6.47;;;5.00;;
4428;SDS011;2227;47.810;8.810;2022-09-01T21:27:01;6.05;;;4.90;;
4428;SDS011;2227;47.810;8.810;2022-09-01T21:32:02;5.55;;;4.63;;
4428;SDS011;2227;47.810;8.810;2022-09-01T21:34:29;5.82;;;4.75;;
4428;SDS011;2227;47.810;8.810;2022-09-01T21:36:56;6.00;;;4.45;;
4428;SDS011;2227;47.810;8.810;2022-09-01T21:39:22;6.00;;;4.45;;
4428;SDS011;2227;47.810;8.810;2022-09-01T21:41:49;5.47;;;4.10;;
4428;SDS011;2227;47.810;8.810;2022-09-01T21:44:16;5.18;;;4.18;;
4428;SDS011;2227;47.810;8.810;2022-09-01T21:46:43;6.22;;;4.38;;
4428;SDS011;2227;47.810;8.810;2022-09-01T21:49:10;5.78;;;4.10;;
4428;SDS011;2227;47.810;8.810;2022-09-01T21:51:39;5.28;;;3.92;;
4428;SDS011;2227;47.810;8.810;2022-09-01T21:54:07;4.95;;;4.15;;
4428;SDS011;2227;47.810;8.810;2022-09-01T21:56:34;5.82;;;4.20;;
4428;SDS011;2227;47.810;8.810;2022-09-01T21:59:01;5.40;;;3.90;;
4428;SDS011;2227;47.810;8.810;2022-09-01T22:01:28;6.07;;;4.20;;
4428;SDS011;2227;47.810;8.810;2022-09-01T22:03:59;5.28;;;4.43;;
4428;SDS011;2227;47.810;8.810;2022-09-01T22:06:29;5.10;;;4.28;;
4428;SDS011;2227;47.810;8.810;2022-09-01T22:08:58;6.03;;;4.20;;
4428;SDS011;2227;47.810;8.810;2022-09-01T22:11:27;5.32;;;3.97;;
4428;SDS011;2227;47.810;8.810;2022-09-01T22:13:56;5.00;;;4.22;;
4428;SDS011;2227;47.810;8.810;2022-09-01T22:16:24;7.18;;;4.38;;
4428;SDS011;2227;47.810;8.810;2022-09-01T22:18:51;5.40;;;4.00;;
4428;SDS011;2227;47.810;8.810;2022-09-01T22:21:18;5.57;;;4.63;;
4428;SDS011;2227;47.810;8.810;2022-09-01T22:23:46;7.28;;;4.32;;
4428;SDS011;2227;47.810;8.810;2022-09-01T22:26:20;6.35;;;4.70;;
4428;SDS011;2227;47.810;8.810;2022-09-01T22:28:55;5.20;;;4.07;;
4428;SDS011;2227;47.810;8.810;2022-09-01T22:31:25;5.35;;;3.97;;
4428;SDS011;2227;47.810;8.810;2022-09-01T22:33:53;5.38;;;4.05;;
4428;SDS011;2227;47.810;8.810;2022-09-01T22:36:26;5.53;;;4.25;;
4428;SDS011;2227;47.810;8.810;2022-09-01T22:38:55;5.72;;;4.65;;
4428;SDS011;2227;47.810;8.810;2022-09-01T22:41:24;5.55;;;3.88;;
4428;SDS011;2227;47.810;8.810;2022-09-01T22:43:53;5.30;;;4.32;;
4428;SDS011;2227;47.810;8.810;2022-09-01T22:46:21;6.05;;;4.13;;
4428;SDS011;2227;47.810;8.810;2022-09-01T22:48:48;5.90;;;4.03;;
4428;SDS011;2227;47.810;8.810;2022-09-01T22:51:15;6.63;;;4.25;;
4428;SDS011;2227;47.810;8.810;2022-09-01T22:53:44;5.32;;;4.38;;
4428;SDS011;2227;47.810;8.810;2022-09-01T22:56:12;6.00;;;4.30;;
4428;SDS011;2227;47.810;8.810;2022-09-01T22:58:50;6.68;;;4.70;;
